createdAt,value
2023-01-27T00:00:40.587Z,1.85
2023-01-27T00:01:37.933Z,2.01
2023-01-27T00:02:38.185Z,1.80
2023-01-27T00:03:35.866Z,1.76
2023-01-27T00:04:33.329Z,1.89
2023-01-27T00:05:30.703Z,2.00
2023-01-27T00:06:28.072Z,1.81
2023-01-27T00:07:25.503Z,2.00
2023-01-27T00:08:22.890Z,2.10
2023-01-27T00:09:20.188Z,1.87
2023-01-27T00:10:18.861Z,1.81
2023-01-27T00:11:34.643Z,1.77
2023-01-27T00:12:50.888Z,1.80
2023-01-27T00:13:48.444Z,1.86
2023-01-27T00:14:45.803Z,1.74
2023-01-27T00:15:43.179Z,1.71
2023-01-27T00:16:40.609Z,1.89
2023-01-27T00:17:38.460Z,1.55
2023-01-27T00:18:35.800Z,1.77
2023-01-27T00:19:33.121Z,1.96
2023-01-27T00:20:49.013Z,1.55
2023-01-27T00:22:05.350Z,1.90
2023-01-27T00:23:21.172Z,1.66
2023-01-27T00:24:36.409Z,1.64
2023-01-27T00:25:33.749Z,1.50
2023-01-27T00:26:31.139Z,1.61
2023-01-27T00:27:28.548Z,1.51
2023-01-27T00:28:26.665Z,1.77
2023-01-27T00:29:23.992Z,1.66
2023-01-27T00:30:21.320Z,1.58
2023-01-27T00:31:37.593Z,1.50
2023-01-27T00:32:53.442Z,1.65
2023-01-27T00:33:54.218Z,1.65
2023-01-27T00:34:51.569Z,1.79
2023-01-27T00:35:48.889Z,1.89
2023-01-27T00:36:46.204Z,1.98
2023-01-27T00:37:46.734Z,1.76
2023-01-27T00:38:44.043Z,1.88
2023-01-27T00:39:42.118Z,1.77
2023-01-27T00:40:39.476Z,1.63
2023-01-27T00:41:37.273Z,1.69
2023-01-27T00:42:35.280Z,1.69
2023-01-27T00:43:32.719Z,1.71
2023-01-27T00:44:30.143Z,1.95
2023-01-27T00:45:45.917Z,1.56
2023-01-27T00:46:43.359Z,1.65
2023-01-27T00:47:40.745Z,1.61
2023-01-27T00:48:38.560Z,1.61
2023-01-27T00:49:35.926Z,1.80
2023-01-27T00:50:33.338Z,1.50
2023-01-27T00:51:30.706Z,1.56
2023-01-27T00:52:28.053Z,1.71
2023-01-27T00:53:25.695Z,1.70
2023-01-27T00:54:23.239Z,1.42
2023-01-27T00:55:20.921Z,1.87
2023-01-27T00:56:18.644Z,1.69
2023-01-27T00:57:15.981Z,1.96
2023-01-27T00:58:13.478Z,1.56
2023-01-27T00:59:10.854Z,1.51
2023-01-27T01:00:09.813Z,1.58
2023-01-27T01:01:10.565Z,1.65
2023-01-27T01:02:07.994Z,1.69
2023-01-27T01:03:05.870Z,1.59
2023-01-27T01:04:03.371Z,1.56
2023-01-27T01:05:00.792Z,1.74
2023-01-27T01:05:59.062Z,1.81
2023-01-27T01:06:56.380Z,1.64
2023-01-27T01:07:53.686Z,1.66
2023-01-27T01:08:53.963Z,1.51
2023-01-27T01:09:51.274Z,1.50
2023-01-27T01:10:48.694Z,1.47
2023-01-27T01:11:46.128Z,1.42
2023-01-27T01:12:43.600Z,1.33
2023-01-27T01:13:42.030Z,1.50
2023-01-27T01:14:39.446Z,1.38
2023-01-27T01:15:37.343Z,1.40
2023-01-27T01:16:34.734Z,1.48
2023-01-27T01:17:32.050Z,1.42
2023-01-27T01:18:29.437Z,1.49
2023-01-27T01:19:26.767Z,1.38
2023-01-27T01:20:24.821Z,1.57
2023-01-27T01:21:22.568Z,1.63
2023-01-27T01:22:19.825Z,1.29
2023-01-27T01:23:17.185Z,1.54
2023-01-27T01:24:14.736Z,1.46
2023-01-27T01:25:12.162Z,1.48
2023-01-27T01:26:11.270Z,1.39
2023-01-27T01:27:08.599Z,1.28
2023-01-27T01:28:07.303Z,1.57
2023-01-27T01:29:05.060Z,1.15
2023-01-27T01:30:02.717Z,1.14
2023-01-27T01:31:10.652Z,1.28
2023-01-27T01:32:09.951Z,1.31
2023-01-27T01:33:07.350Z,1.44
2023-01-27T01:34:04.899Z,1.51
2023-01-27T01:35:02.222Z,1.18
2023-01-27T01:36:10.868Z,1.27
2023-01-27T01:37:08.300Z,1.26
2023-01-27T01:38:05.707Z,1.49
2023-01-27T01:39:03.072Z,1.55
2023-01-27T01:40:00.368Z,1.50
2023-01-27T01:40:57.710Z,1.44
2023-01-27T01:41:55.004Z,1.40
2023-01-27T01:42:54.701Z,1.27
2023-01-27T01:43:52.228Z,1.53
2023-01-27T01:44:51.989Z,2.50
2023-01-27T01:45:54.679Z,2.47
2023-01-27T01:46:52.094Z,2.25
2023-01-27T01:47:49.435Z,2.50
2023-01-27T01:48:49.431Z,2.59
2023-01-27T01:49:47.882Z,2.96
2023-01-27T01:50:48.487Z,2.99
2023-01-27T01:51:49.637Z,3.10
2023-01-27T01:52:46.989Z,3.24
2023-01-27T01:53:50.414Z,3.77
2023-01-27T01:54:53.757Z,4.12
2023-01-27T01:55:51.320Z,4.86
2023-01-27T01:57:11.688Z,5.75
2023-01-27T01:58:11.484Z,7.14
2023-01-27T01:59:15.996Z,7.53
2023-01-27T02:00:14.042Z,8.04
2023-01-27T02:01:14.292Z,7.84
2023-01-27T02:02:14.259Z,7.62
2023-01-27T02:03:11.975Z,7.38
2023-01-27T02:04:14.361Z,7.29
2023-01-27T02:05:16.541Z,8.01
2023-01-27T02:06:14.332Z,8.05
2023-01-27T02:07:18.222Z,7.61
2023-01-27T02:08:22.785Z,7.31
2023-01-27T02:09:21.326Z,7.87
2023-01-27T02:10:18.725Z,7.63
2023-01-27T02:11:16.235Z,7.22
2023-01-27T02:12:13.659Z,7.35
2023-01-27T02:13:11.029Z,7.62
2023-01-27T02:14:09.121Z,6.94
2023-01-27T02:15:08.236Z,7.12
2023-01-27T02:16:06.071Z,7.18
2023-01-27T02:17:04.790Z,6.79
2023-01-27T02:18:02.647Z,6.68
2023-01-27T02:18:59.987Z,7.42
2023-01-27T02:20:19.770Z,6.81
2023-01-27T02:21:17.437Z,6.21
2023-01-27T02:22:21.184Z,6.19
2023-01-27T02:23:18.481Z,6.12
2023-01-27T02:24:16.354Z,6.03
2023-01-27T02:25:32.451Z,6.37
2023-01-27T02:26:36.395Z,6.29
2023-01-27T02:27:34.012Z,5.56
2023-01-27T02:28:32.009Z,5.83
2023-01-27T02:29:29.380Z,6.39
2023-01-27T02:30:27.894Z,5.90
2023-01-27T02:31:25.612Z,5.84
2023-01-27T02:32:23.879Z,6.54
2023-01-27T02:33:21.190Z,6.01
2023-01-27T02:34:23.055Z,6.89
2023-01-27T02:35:25.283Z,6.60
2023-01-27T02:36:22.915Z,6.60
2023-01-27T02:37:20.894Z,6.34
2023-01-27T02:38:19.772Z,6.56
2023-01-27T02:39:18.942Z,7.19
2023-01-27T02:40:17.611Z,6.88
2023-01-27T02:41:14.885Z,6.29
2023-01-27T02:42:15.436Z,6.67
2023-01-27T02:43:12.821Z,6.11
2023-01-27T02:44:10.209Z,6.26
2023-01-27T02:45:07.800Z,6.65
2023-01-27T02:46:05.290Z,6.54
2023-01-27T02:47:02.760Z,6.22
2023-01-27T02:48:01.001Z,6.56
2023-01-27T02:48:59.144Z,6.90
2023-01-27T02:49:56.445Z,6.41
2023-01-27T02:50:53.815Z,6.41
2023-01-27T02:51:51.107Z,7.33
2023-01-27T02:52:48.443Z,8.34
2023-01-27T02:53:45.848Z,7.46
2023-01-27T02:54:43.160Z,7.42
2023-01-27T02:55:40.552Z,7.04
2023-01-27T02:56:37.921Z,7.26
2023-01-27T02:57:35.380Z,7.34
2023-01-27T02:58:32.729Z,7.33
2023-01-27T02:59:30.048Z,7.00
2023-01-27T03:00:27.560Z,7.23
2023-01-27T03:01:25.456Z,8.63
2023-01-27T03:02:30.448Z,8.33
2023-01-27T03:03:27.865Z,8.27
2023-01-27T03:04:25.292Z,8.51
2023-01-27T03:05:22.693Z,8.46
2023-01-27T03:06:20.431Z,8.16
2023-01-27T03:07:17.806Z,8.92
2023-01-27T03:08:15.173Z,8.45
2023-01-27T03:09:12.591Z,8.55
2023-01-27T03:10:10.419Z,8.86
2023-01-27T03:11:08.689Z,8.58
2023-01-27T03:12:20.984Z,9.66
2023-01-27T03:13:22.472Z,10.07
2023-01-27T03:14:19.797Z,9.74
2023-01-27T03:15:35.659Z,10.05
2023-01-27T03:16:51.480Z,10.19
2023-01-27T03:18:07.321Z,10.72
2023-01-27T03:19:05.935Z,11.07
2023-01-27T03:20:03.486Z,11.40
2023-01-27T03:21:02.356Z,11.50
2023-01-27T03:22:03.193Z,10.93
2023-01-27T03:23:00.601Z,11.55
2023-01-27T03:23:57.931Z,12.68
2023-01-27T03:24:55.375Z,12.44
2023-01-27T03:25:52.693Z,12.33
2023-01-27T03:26:50.045Z,12.61
2023-01-27T03:27:47.398Z,11.91
2023-01-27T03:29:04.638Z,11.33
2023-01-27T03:30:02.069Z,9.83
2023-01-27T03:31:07.486Z,10.08
2023-01-27T03:32:05.059Z,10.44
2023-01-27T03:33:04.090Z,10.78
2023-01-27T03:34:01.596Z,11.33
2023-01-27T03:35:00.423Z,11.09
2023-01-27T03:36:16.188Z,11.95
2023-01-27T03:37:31.973Z,11.45
2023-01-27T03:38:47.745Z,10.72
2023-01-27T03:40:03.619Z,10.63
2023-01-27T03:41:23.044Z,10.30
2023-01-27T03:42:38.982Z,10.73
2023-01-27T03:43:54.770Z,12.44
2023-01-27T03:45:10.724Z,11.63
2023-01-27T03:46:20.181Z,12.68
2023-01-27T03:47:17.507Z,12.27
2023-01-27T03:48:14.961Z,11.63
2023-01-27T03:49:12.326Z,12.82
2023-01-27T03:50:11.198Z,12.30
2023-01-27T03:51:09.818Z,12.24
2023-01-27T03:52:07.139Z,11.96
2023-01-27T03:53:04.980Z,12.19
2023-01-27T03:54:02.345Z,12.52
2023-01-27T03:54:59.655Z,12.22
2023-01-27T03:55:56.956Z,12.18
2023-01-27T03:56:54.279Z,10.71
2023-01-27T03:57:51.648Z,11.13
2023-01-27T03:58:50.511Z,10.86
2023-01-27T03:59:47.901Z,10.60
2023-01-27T04:00:52.953Z,10.47
2023-01-27T04:01:50.504Z,10.44
2023-01-27T04:03:06.416Z,11.00
2023-01-27T04:04:22.445Z,10.35
2023-01-27T04:05:38.141Z,9.66
2023-01-27T04:06:52.475Z,9.74
2023-01-27T04:07:49.868Z,9.89
2023-01-27T04:08:47.232Z,9.62
2023-01-27T04:09:44.602Z,9.52
2023-01-27T04:11:01.908Z,10.51
2023-01-27T04:12:01.141Z,10.10
2023-01-27T04:12:58.530Z,9.93
2023-01-27T04:13:55.892Z,9.69
2023-01-27T04:14:53.346Z,9.77
2023-01-27T04:15:54.195Z,9.33
2023-01-27T04:16:53.371Z,9.00
2023-01-27T04:17:50.654Z,9.82
2023-01-27T04:18:49.728Z,9.38
2023-01-27T04:19:47.665Z,9.39
2023-01-27T04:20:44.943Z,10.13
2023-01-27T04:21:42.504Z,9.46
2023-01-27T04:22:39.864Z,9.41
2023-01-27T04:23:37.208Z,9.65
2023-01-27T04:24:34.602Z,9.00
2023-01-27T04:25:31.898Z,9.16
2023-01-27T04:26:33.362Z,9.11
2023-01-27T04:27:30.664Z,9.15
2023-01-27T04:28:43.241Z,9.65
2023-01-27T04:29:42.622Z,9.46
2023-01-27T04:30:39.949Z,8.82
2023-01-27T04:31:37.344Z,8.20
2023-01-27T04:32:34.826Z,8.41
2023-01-27T04:33:32.311Z,7.47
2023-01-27T04:34:29.838Z,7.26
2023-01-27T04:35:38.439Z,7.04
2023-01-27T04:36:36.223Z,7.50
2023-01-27T04:37:33.504Z,7.70
2023-01-27T04:38:30.880Z,7.30
2023-01-27T04:39:28.193Z,7.52
2023-01-27T04:40:25.468Z,7.18
2023-01-27T04:41:22.791Z,6.90
2023-01-27T04:42:20.390Z,7.60
2023-01-27T04:43:17.663Z,7.02
2023-01-27T04:44:15.389Z,7.03
2023-01-27T04:45:12.929Z,7.88
2023-01-27T04:46:10.463Z,7.69
2023-01-27T04:47:07.839Z,7.31
2023-01-27T04:48:06.542Z,8.02
2023-01-27T04:49:04.456Z,8.58
2023-01-27T04:50:01.858Z,8.17
2023-01-27T04:50:59.198Z,8.16
2023-01-27T04:51:56.586Z,7.95
2023-01-27T04:52:53.924Z,7.37
2023-01-27T04:53:51.369Z,6.39
2023-01-27T04:54:48.666Z,6.47
2023-01-27T04:55:48.549Z,5.84
2023-01-27T04:56:56.815Z,7.11
2023-01-27T04:57:54.133Z,7.75
2023-01-27T04:58:52.250Z,7.97
2023-01-27T04:59:50.178Z,7.86
2023-01-27T05:00:47.504Z,7.87
2023-01-27T05:01:44.899Z,7.65
2023-01-27T05:02:42.333Z,7.72
2023-01-27T05:03:39.925Z,7.75
2023-01-27T05:04:37.259Z,7.39
2023-01-27T05:05:34.522Z,7.38
2023-01-27T05:06:31.837Z,7.47
2023-01-27T05:07:31.273Z,7.84
2023-01-27T05:08:29.464Z,8.14
2023-01-27T05:09:26.861Z,7.64
2023-01-27T05:10:24.205Z,7.60
2023-01-27T05:11:22.138Z,7.57
2023-01-27T05:12:19.473Z,7.20
2023-01-27T05:13:16.767Z,7.47
2023-01-27T05:14:14.726Z,7.32
2023-01-27T05:15:12.554Z,7.24
2023-01-27T05:16:13.137Z,7.49
2023-01-27T05:17:10.472Z,6.96
2023-01-27T05:18:07.778Z,8.11
2023-01-27T05:19:05.358Z,10.22
2023-01-27T05:20:02.753Z,10.11
2023-01-27T05:21:01.392Z,9.03
2023-01-27T05:21:58.734Z,8.45
2023-01-27T05:23:15.960Z,8.39
2023-01-27T05:24:13.407Z,7.60
2023-01-27T05:25:11.184Z,6.66
2023-01-27T05:26:13.573Z,6.61
2023-01-27T05:27:10.863Z,6.72
2023-01-27T05:28:08.141Z,7.53
2023-01-27T05:29:05.453Z,7.61
2023-01-27T05:30:03.264Z,7.39
2023-01-27T05:31:04.958Z,7.24
2023-01-27T05:32:02.400Z,7.81
2023-01-27T05:32:59.837Z,7.19
2023-01-27T05:33:58.876Z,6.37
2023-01-27T05:34:56.156Z,6.35
2023-01-27T05:35:53.481Z,6.72
2023-01-27T05:36:51.655Z,6.88
2023-01-27T05:37:49.013Z,6.79
2023-01-27T05:38:46.615Z,6.99
2023-01-27T05:39:43.950Z,7.45
2023-01-27T05:40:41.275Z,7.90
2023-01-27T05:41:38.637Z,7.80
2023-01-27T05:42:35.942Z,7.66
2023-01-27T05:43:34.598Z,8.11
2023-01-27T05:44:31.941Z,7.98
2023-01-27T05:45:29.325Z,7.75
2023-01-27T05:46:29.152Z,7.67
2023-01-27T05:47:26.582Z,11.06
2023-01-27T05:48:24.057Z,10.07
2023-01-27T05:49:21.373Z,8.25
2023-01-27T05:50:18.774Z,9.36
2023-01-27T05:51:17.869Z,9.29
2023-01-27T05:52:15.193Z,8.78
2023-01-27T05:53:12.542Z,9.63
2023-01-27T05:54:10.456Z,9.69
2023-01-27T05:55:08.029Z,10.36
2023-01-27T05:56:05.649Z,11.17
2023-01-27T05:57:02.964Z,12.63
2023-01-27T05:58:00.234Z,13.40
2023-01-27T05:58:58.422Z,13.07
2023-01-27T05:59:55.875Z,13.13
2023-01-27T06:00:54.350Z,13.81
2023-01-27T06:01:51.685Z,14.42
2023-01-27T06:02:49.212Z,14.09
2023-01-27T06:03:47.767Z,13.14
2023-01-27T06:04:45.125Z,13.61
2023-01-27T06:05:52.800Z,13.53
2023-01-27T06:06:50.112Z,13.10
2023-01-27T06:07:47.461Z,13.59
2023-01-27T06:08:45.793Z,12.86
2023-01-27T06:09:43.075Z,12.91
2023-01-27T06:10:40.451Z,12.55
2023-01-27T06:11:37.767Z,12.98
2023-01-27T06:12:35.526Z,12.50
2023-01-27T06:13:38.625Z,12.69
2023-01-27T06:14:35.998Z,12.51
2023-01-27T06:15:33.263Z,10.76
2023-01-27T06:16:30.755Z,10.92
2023-01-27T06:17:28.205Z,11.03
2023-01-27T06:18:25.594Z,11.11
2023-01-27T06:19:22.927Z,10.90
2023-01-27T06:20:20.335Z,11.86
2023-01-27T06:21:18.257Z,11.30
2023-01-27T06:22:15.619Z,11.39
2023-01-27T06:23:14.290Z,11.23
2023-01-27T06:24:12.761Z,10.61
2023-01-27T06:25:11.047Z,10.86
2023-01-27T06:26:10.282Z,10.68
2023-01-27T06:27:07.653Z,10.51
2023-01-27T06:28:05.223Z,10.26
2023-01-27T06:29:02.673Z,11.89
2023-01-27T06:30:00.032Z,12.53
2023-01-27T06:31:04.359Z,12.74
2023-01-27T06:32:01.769Z,12.22
2023-01-27T06:32:59.198Z,11.65
2023-01-27T06:33:56.740Z,13.14
2023-01-27T06:34:54.117Z,13.14
2023-01-27T06:35:51.474Z,13.38
2023-01-27T06:36:48.791Z,12.67
2023-01-27T06:37:46.453Z,12.93
2023-01-27T06:38:44.735Z,12.92
2023-01-27T06:39:42.079Z,11.71
2023-01-27T06:40:39.364Z,11.39
2023-01-27T06:41:36.779Z,11.24
2023-01-27T06:42:34.187Z,11.35
2023-01-27T06:43:31.617Z,10.66
2023-01-27T06:44:28.961Z,9.59
2023-01-27T06:45:26.456Z,8.80
2023-01-27T06:46:23.831Z,9.15
2023-01-27T06:47:21.179Z,8.65
2023-01-27T06:48:19.206Z,7.96
2023-01-27T06:49:16.573Z,7.61
2023-01-27T06:50:14.199Z,8.51
2023-01-27T06:51:11.938Z,9.37
2023-01-27T06:52:09.237Z,9.71
2023-01-27T06:53:06.996Z,10.26
2023-01-27T06:54:04.852Z,10.47
2023-01-27T06:55:02.721Z,10.82
2023-01-27T06:56:01.610Z,11.48
2023-01-27T06:56:58.931Z,10.79
2023-01-27T06:57:56.272Z,11.51
2023-01-27T06:58:53.549Z,12.35
2023-01-27T06:59:50.965Z,13.62
2023-01-27T07:00:48.402Z,15.07
2023-01-27T07:01:45.729Z,15.72
2023-01-27T07:02:43.854Z,15.61
2023-01-27T07:03:42.954Z,15.99
2023-01-27T07:04:41.794Z,15.71
2023-01-27T07:05:41.140Z,16.19
2023-01-27T07:06:38.450Z,16.29
2023-01-27T07:07:35.765Z,16.37
2023-01-27T07:08:33.095Z,17.90
2023-01-27T07:09:35.380Z,18.13
2023-01-27T07:10:39.028Z,17.65
2023-01-27T07:11:36.859Z,18.16
2023-01-27T07:12:37.854Z,17.95
2023-01-27T07:13:35.232Z,17.71
2023-01-27T07:14:32.574Z,18.32
2023-01-27T07:15:32.148Z,18.82
2023-01-27T07:16:29.531Z,19.95
2023-01-27T07:17:26.857Z,19.13
2023-01-27T07:18:24.202Z,18.78
2023-01-27T07:19:21.651Z,19.58
2023-01-27T07:20:19.059Z,20.25
2023-01-27T07:21:16.445Z,19.78
2023-01-27T07:22:13.819Z,20.00
2023-01-27T07:23:11.530Z,20.74
2023-01-27T07:24:09.000Z,20.11
2023-01-27T07:25:06.751Z,20.03
2023-01-27T07:26:09.824Z,19.42
2023-01-27T07:27:13.092Z,19.57
2023-01-27T07:28:10.628Z,19.83
2023-01-27T07:29:08.865Z,19.75
2023-01-27T07:30:07.411Z,19.48
2023-01-27T07:31:05.032Z,20.20
2023-01-27T07:32:02.505Z,18.68
2023-01-27T07:33:04.510Z,18.31
2023-01-27T07:34:01.828Z,17.81
2023-01-27T07:34:59.318Z,17.52
2023-01-27T07:35:56.761Z,17.62
2023-01-27T07:36:54.151Z,18.32
2023-01-27T07:37:51.487Z,18.30
2023-01-27T07:38:49.721Z,18.53
2023-01-27T07:39:48.255Z,17.56
2023-01-27T07:40:45.611Z,17.08
2023-01-27T07:41:44.000Z,17.67
2023-01-27T07:42:41.552Z,16.26
2023-01-27T07:43:38.921Z,16.19
2023-01-27T07:44:36.281Z,17.06
2023-01-27T07:45:33.674Z,16.93
2023-01-27T07:46:31.165Z,17.70
2023-01-27T07:47:28.568Z,18.42
2023-01-27T07:48:26.107Z,19.10
2023-01-27T07:49:24.360Z,19.14
2023-01-27T07:50:22.538Z,18.36
2023-01-27T07:51:19.934Z,17.65
2023-01-27T07:52:17.230Z,17.98
2023-01-27T07:53:14.574Z,16.51
2023-01-27T07:54:12.239Z,15.51
2023-01-27T07:55:09.664Z,16.30
2023-01-27T07:56:11.886Z,15.86
2023-01-27T07:57:09.280Z,16.64
2023-01-27T07:58:06.721Z,16.52
2023-01-27T07:59:04.781Z,17.34
2023-01-27T08:00:02.325Z,17.04
2023-01-27T08:00:59.660Z,17.23
2023-01-27T08:01:57.002Z,19.14
2023-01-27T08:02:55.331Z,19.00
2023-01-27T08:03:52.826Z,18.75
2023-01-27T08:04:53.383Z,19.67
2023-01-27T08:05:51.428Z,19.33
2023-01-27T08:06:48.752Z,17.77
2023-01-27T08:07:46.205Z,18.02
2023-01-27T08:08:43.556Z,18.60
2023-01-27T08:09:40.990Z,17.78
2023-01-27T08:10:38.426Z,17.18
2023-01-27T08:11:36.247Z,17.35
2023-01-27T08:12:33.587Z,17.06
2023-01-27T08:13:31.896Z,16.50
2023-01-27T08:14:29.265Z,15.60
2023-01-27T08:15:26.600Z,16.00
2023-01-27T08:16:23.986Z,16.33
2023-01-27T08:17:21.399Z,15.93
2023-01-27T08:18:18.841Z,15.50
2023-01-27T08:19:16.167Z,14.13
2023-01-27T08:20:13.908Z,13.03
2023-01-27T08:21:12.895Z,12.90
2023-01-27T08:22:10.191Z,12.76
2023-01-27T08:23:07.530Z,12.10
2023-01-27T08:24:05.149Z,13.45
2023-01-27T08:25:02.848Z,14.89
2023-01-27T08:26:02.628Z,14.09
2023-01-27T08:26:59.989Z,14.91
2023-01-27T08:27:57.392Z,15.78
2023-01-27T08:28:54.749Z,18.52
2023-01-27T08:29:52.123Z,22.16
2023-01-27T08:30:52.901Z,23.01
2023-01-27T08:31:50.365Z,23.13
2023-01-27T08:32:47.968Z,23.81
2023-01-27T08:33:50.487Z,24.70
2023-01-27T08:34:47.784Z,24.02
2023-01-27T08:35:45.230Z,26.10
2023-01-27T08:36:43.598Z,26.72
2023-01-27T08:37:40.982Z,27.48
2023-01-27T08:38:39.202Z,27.95
2023-01-27T08:39:36.700Z,27.16
2023-01-27T08:40:34.088Z,26.97
2023-01-27T08:41:31.452Z,24.84
2023-01-27T08:42:28.876Z,24.44
2023-01-27T08:43:26.220Z,24.60
2023-01-27T08:44:24.259Z,24.16
2023-01-27T08:45:21.590Z,24.71
2023-01-27T08:46:19.065Z,26.39
2023-01-27T08:47:16.460Z,26.31
2023-01-27T08:48:14.117Z,25.06
2023-01-27T08:49:13.772Z,23.66
2023-01-27T08:50:11.475Z,24.30
2023-01-27T08:51:11.088Z,25.02
2023-01-27T08:52:08.488Z,25.55
2023-01-27T08:53:06.386Z,24.12
2023-01-27T08:54:04.197Z,24.99
2023-01-27T08:55:01.565Z,23.57
2023-01-27T08:56:02.425Z,22.38
2023-01-27T08:56:59.942Z,22.98
2023-01-27T08:57:59.713Z,23.17
2023-01-27T08:58:59.729Z,22.70
2023-01-27T08:59:57.072Z,23.90
2023-01-27T09:00:54.465Z,22.29
2023-01-27T09:01:51.814Z,22.44
2023-01-27T09:02:51.032Z,23.09
2023-01-27T09:03:48.557Z,22.89
2023-01-27T09:04:45.952Z,21.93
2023-01-27T09:05:43.456Z,22.35
2023-01-27T09:06:40.903Z,21.52
2023-01-27T09:07:38.257Z,22.00
2023-01-27T09:08:35.703Z,22.08
2023-01-27T09:09:33.286Z,21.06
2023-01-27T09:10:31.639Z,21.20
2023-01-27T09:11:28.974Z,21.65
2023-01-27T09:12:26.478Z,21.85
2023-01-27T09:13:23.831Z,21.72
2023-01-27T09:14:21.293Z,20.72
2023-01-27T09:15:18.681Z,22.17
2023-01-27T09:16:16.035Z,21.80
2023-01-27T09:17:17.172Z,21.69
2023-01-27T09:18:14.526Z,20.00
2023-01-27T09:19:11.880Z,20.98
2023-01-27T09:20:10.379Z,20.93
2023-01-27T09:21:07.911Z,22.76
2023-01-27T09:22:05.943Z,21.84
2023-01-27T09:23:05.177Z,21.81
2023-01-27T09:24:02.599Z,22.08
2023-01-27T09:24:59.955Z,21.63
2023-01-27T09:25:57.294Z,21.02
2023-01-27T09:26:54.752Z,20.89
2023-01-27T09:27:56.006Z,21.21
2023-01-27T09:28:53.355Z,27.90
2023-01-27T09:29:50.775Z,76.78
2023-01-27T09:30:48.300Z,68.07
2023-01-27T09:31:45.805Z,125.69
2023-01-27T09:32:43.247Z,66.82
2023-01-27T09:33:40.615Z,95.51
2023-01-27T09:34:38.406Z,214.06
2023-01-27T09:35:43.344Z,62.29
2023-01-27T09:36:44.988Z,58.55
2023-01-27T09:38:02.596Z,68.96
2023-01-27T09:39:02.870Z,70.68
2023-01-27T09:40:04.187Z,51.21
2023-01-27T09:41:10.598Z,46.77
2023-01-27T09:42:24.983Z,32.89
2023-01-27T09:43:28.125Z,39.00
2023-01-27T09:44:43.980Z,24.86
2023-01-27T09:45:50.199Z,16.39
2023-01-27T09:47:13.041Z,13.58
2023-01-27T09:48:30.599Z,13.29
2023-01-27T09:49:32.673Z,47.26
2023-01-27T09:50:32.898Z,80.01
2023-01-27T09:51:48.542Z,63.74
2023-01-27T09:52:58.298Z,57.72
2023-01-27T09:54:07.692Z,104.84
2023-01-27T09:55:08.854Z,311.14
2023-01-27T09:56:19.930Z,183.65
2023-01-27T09:57:17.281Z,327.33
2023-01-27T09:58:17.381Z,111.17
2023-01-27T09:59:14.756Z,16.26
2023-01-27T10:00:21.793Z,26.51
2023-01-27T10:01:19.173Z,138.93
2023-01-27T10:02:45.145Z,64.47
2023-01-27T10:03:45.205Z,26.45
2023-01-27T10:04:45.423Z,37.72
2023-01-27T10:05:51.694Z,60.30
2023-01-27T10:06:57.586Z,83.04
2023-01-27T10:08:10.074Z,54.66
2023-01-27T10:09:23.021Z,80.99
2023-01-27T10:10:30.055Z,70.87
2023-01-27T10:11:39.365Z,34.56
2023-01-27T10:12:36.659Z,27.03
2023-01-27T10:13:36.773Z,19.51
2023-01-27T10:14:52.229Z,18.81
2023-01-27T10:15:58.311Z,33.56
2023-01-27T10:16:58.420Z,43.77
2023-01-27T10:18:17.774Z,91.37
2023-01-27T10:19:33.634Z,64.64
2023-01-27T10:20:30.986Z,16.08
2023-01-27T10:21:47.922Z,14.91
2023-01-27T10:23:03.751Z,45.51
2023-01-27T10:24:06.888Z,52.17
2023-01-27T10:25:04.302Z,32.71
2023-01-27T10:26:08.488Z,22.83
2023-01-27T10:27:17.602Z,26.29
2023-01-27T10:28:17.117Z,29.58
2023-01-27T10:29:23.166Z,36.56
2023-01-27T10:30:23.421Z,38.20
2023-01-27T10:31:26.817Z,27.43
2023-01-27T10:32:30.482Z,30.98
2023-01-27T10:33:30.594Z,59.94
2023-01-27T10:34:42.680Z,80.88
2023-01-27T10:35:48.003Z,73.34
2023-01-27T10:37:09.439Z,55.23
2023-01-27T10:38:24.041Z,108.02
2023-01-27T10:39:35.008Z,136.93
2023-01-27T10:40:43.523Z,94.46
2023-01-27T10:41:51.937Z,45.19
2023-01-27T10:43:02.145Z,50.48
2023-01-27T10:43:59.450Z,64.51
2023-01-27T10:44:56.699Z,80.77
2023-01-27T10:46:00.875Z,90.71
2023-01-27T10:47:01.090Z,63.28
2023-01-27T10:48:16.357Z,224.43
2023-01-27T10:49:24.365Z,176.10
2023-01-27T10:50:27.758Z,114.81
2023-01-27T10:51:45.368Z,135.00
2023-01-27T10:52:46.755Z,309.66
2023-01-27T10:53:51.562Z,207.06
2023-01-27T10:54:58.028Z,73.39
2023-01-27T10:56:01.692Z,49.87
2023-01-27T10:57:05.904Z,29.90
2023-01-27T10:58:20.227Z,34.25
2023-01-27T10:59:20.327Z,47.66
2023-01-27T11:00:51.892Z,31.91
2023-01-27T11:01:53.323Z,70.20
2023-01-27T11:02:50.613Z,28.94
2023-01-27T11:03:54.615Z,22.96
2023-01-27T11:05:00.027Z,44.05
2023-01-27T11:06:02.378Z,89.02
2023-01-27T11:07:01.315Z,76.35
2023-01-27T11:08:13.382Z,96.64
2023-01-27T11:09:16.677Z,93.76
2023-01-27T11:10:18.045Z,68.36
2023-01-27T11:11:37.992Z,40.93
2023-01-27T11:12:37.319Z,15.81
2023-01-27T11:13:35.362Z,23.56
2023-01-27T11:14:52.984Z,53.69
2023-01-27T11:15:50.807Z,49.10
2023-01-27T11:16:51.190Z,29.00
2023-01-27T11:18:00.495Z,24.51
2023-01-27T11:19:01.311Z,21.83
2023-01-27T11:20:04.727Z,18.65
2023-01-27T11:21:08.549Z,21.00
2023-01-27T11:22:16.739Z,18.81
2023-01-27T11:23:35.617Z,17.03
2023-01-27T11:24:45.453Z,34.76
2023-01-27T11:26:10.939Z,26.94
2023-01-27T11:27:17.997Z,21.83
2023-01-27T11:28:24.863Z,36.26
2023-01-27T11:29:37.184Z,34.26
2023-01-27T11:30:40.145Z,51.21
2023-01-27T11:31:44.696Z,189.29
2023-01-27T11:32:52.212Z,74.19
2023-01-27T11:34:16.760Z,53.01
2023-01-27T11:35:15.647Z,41.90
2023-01-27T11:36:13.107Z,17.99
2023-01-27T11:37:21.975Z,14.36
2023-01-27T11:38:21.847Z,10.76
2023-01-27T11:39:19.399Z,9.55
2023-01-27T11:40:20.330Z,8.90
2023-01-27T11:41:18.055Z,10.46
2023-01-27T11:42:16.386Z,8.86
2023-01-27T11:43:34.957Z,8.56
2023-01-27T11:44:34.821Z,6.73
2023-01-27T11:45:35.532Z,7.00
2023-01-27T11:46:33.043Z,6.53
2023-01-27T11:47:34.579Z,5.60
2023-01-27T11:48:41.214Z,5.68
2023-01-27T11:49:42.625Z,5.49
2023-01-27T11:50:41.979Z,5.74
2023-01-27T11:51:40.068Z,5.80
2023-01-27T11:52:37.399Z,5.93
2023-01-27T11:53:40.001Z,8.12
2023-01-27T11:54:42.333Z,23.37
2023-01-27T11:55:42.948Z,116.57
2023-01-27T11:56:43.164Z,49.72
2023-01-27T11:57:43.942Z,35.17
2023-01-27T11:58:48.326Z,48.93
2023-01-27T11:59:46.293Z,20.97
2023-01-27T12:01:04.466Z,34.80
2023-01-27T12:02:10.134Z,16.90
2023-01-27T12:03:31.584Z,18.25
2023-01-27T12:04:49.860Z,18.45
2023-01-27T12:05:55.679Z,18.12
2023-01-27T12:06:53.044Z,37.19
2023-01-27T12:07:57.903Z,56.27
2023-01-27T12:08:55.283Z,68.95
2023-01-27T12:09:54.173Z,43.61
2023-01-27T12:10:51.502Z,47.82
2023-01-27T12:11:48.825Z,86.27
2023-01-27T12:12:46.233Z,55.71
2023-01-27T12:14:03.823Z,43.46
2023-01-27T12:15:04.853Z,81.33
2023-01-27T12:16:05.031Z,66.35
2023-01-27T12:17:03.937Z,29.22
2023-01-27T12:18:09.763Z,22.80
2023-01-27T12:19:22.627Z,22.82
2023-01-27T12:20:20.002Z,20.00
2023-01-27T12:21:18.148Z,53.18
2023-01-27T12:22:22.323Z,86.47
2023-01-27T12:23:33.068Z,31.17
2023-01-27T12:24:35.689Z,16.96
2023-01-27T12:25:42.940Z,16.63
2023-01-27T12:26:44.217Z,23.33
2023-01-27T12:27:48.164Z,43.53
2023-01-27T12:28:45.431Z,57.73
2023-01-27T12:29:49.130Z,40.16
2023-01-27T12:30:47.069Z,46.83
2023-01-27T12:31:48.429Z,41.11
2023-01-27T12:32:48.026Z,131.58
2023-01-27T12:33:48.348Z,85.07
2023-01-27T12:34:49.205Z,38.74
2023-01-27T12:35:49.666Z,30.95
2023-01-27T12:36:48.227Z,43.49
2023-01-27T12:37:48.042Z,47.57
2023-01-27T12:38:50.907Z,45.08
2023-01-27T12:40:01.709Z,27.52
2023-01-27T12:41:04.855Z,31.41
2023-01-27T12:42:02.344Z,25.74
2023-01-27T12:42:59.685Z,53.46
2023-01-27T12:44:13.623Z,30.50
2023-01-27T12:45:22.229Z,24.69
2023-01-27T12:46:24.535Z,132.50
2023-01-27T12:47:30.410Z,33.12
2023-01-27T12:48:30.345Z,37.47
2023-01-27T12:49:32.859Z,31.61
2023-01-27T12:50:32.235Z,56.59
2023-01-27T12:51:45.606Z,28.77
2023-01-27T12:52:43.250Z,26.36
2023-01-27T12:53:44.159Z,31.77
2023-01-27T12:54:41.645Z,30.44
2023-01-27T12:55:41.437Z,51.63
2023-01-27T12:56:38.856Z,32.34
2023-01-27T12:57:36.319Z,23.59
2023-01-27T12:58:36.049Z,16.34
2023-01-27T12:59:34.431Z,15.38
2023-01-27T13:00:33.929Z,15.63
2023-01-27T13:01:37.476Z,25.07
2023-01-27T13:02:38.329Z,54.26
2023-01-27T13:03:41.813Z,30.72
2023-01-27T13:04:39.223Z,56.85
2023-01-27T13:05:39.602Z,94.17
2023-01-27T13:06:43.551Z,87.87
2023-01-27T13:07:53.429Z,59.29
2023-01-27T13:08:52.607Z,27.42
2023-01-27T13:09:49.928Z,20.90
2023-01-27T13:10:52.471Z,16.64